< < Back
Terminal Aerodrome Forecast


Current Version              Previous Versions:   1  2  3  4  5  6  7  8  9  

Terminal Aerodrome Forecast

083
FTUS44 KOHX 291731
TAFBNA
TAF
KBNA 291731Z 2918/3018 05008KT P6SM SCT050 SCT080
     FM300200 05004KT P6SM SKC=

Latest METAR

430
SAUS70 KWBC 300700 RRK
MTRBNA
METAR KBNA 300653Z 00000KT 10SM CLR 26/22 A3010 RMK AO2 SLP183
T02560222


USA.gov is the U.S. government's official web portal to all federal, state and local government web resources and services.